Time;durP1;ratioP1;P1;durP2;ratioP2;P2;SDS_P1;SDS_P2;PMS_P1;PMS_P2;Temp;Humidity;BMP_temperature;BMP_pressure;BME280_temperature;BME280_humidity;BME280_pressure;Samples;Min_cycle;Max_cycle;Signal;HPM_P1;HPM_P2
2022/04/17 00:00:16;;;;;;;61.40;38.60;;;6.60;98.60;;;;;;5053511;28;20037;-74
2022/04/17 00:02:46;;;;;;;54.78;37.55;;;6.60;98.80;;;;;;5031043;28;20052;-74
2022/04/17 00:05:12;;;;;;;58.25;40.10;;;6.50;99.00;;;;;;5051900;28;20060;-74
2022/04/17 00:07:37;;;;;;;62.72;41.75;;;6.40;99.20;;;;;;5051838;28;20045;-75
2022/04/17 00:10:03;;;;;;;68.32;46.70;;;6.40;99.40;;;;;;5051740;28;20041;-74
2022/04/17 00:12:29;;;;;;;65.68;45.63;;;6.30;99.60;;;;;;5055563;28;20048;-74
2022/04/17 00:14:55;;;;;;;70.25;43.95;;;6.30;99.80;;;;;;5034748;28;20462;-75
2022/04/17 00:17:21;;;;;;;67.05;44.47;;;6.20;99.80;;;;;;5048074;28;20337;-75
2022/04/17 00:19:48;;;;;;;70.78;45.75;;;6.30;99.90;;;;;;5075582;28;20554;-75
2022/04/17 00:22:16;;;;;;;63.80;41.63;;;6.20;99.90;;;;;;5040956;28;20066;-75
2022/04/17 00:24:42;;;;;;;59.20;41.00;;;6.20;99.90;;;;;;5037564;28;20049;-74
2022/04/17 00:27:08;;;;;;;75.20;46.30;;;6.20;99.90;;;;;;5052574;28;20051;-75
2022/04/17 00:29:35;;;;;;;68.45;44.53;;;6.20;99.90;;;;;;5048248;28;20423;-75
2022/04/17 00:32:00;;;;;;;63.15;44.67;;;6.20;99.90;;;;;;5061704;28;20044;-75
2022/04/17 00:34:29;;;;;;;69.18;47.30;;;6.20;99.90;;;;;;5059614;28;20120;-75
2022/04/17 00:36:59;;;;;;;68.22;46.28;;;6.10;99.90;;;;;;5064633;28;20041;-75
2022/04/17 00:39:25;;;;;;;70.15;46.92;;;6.10;99.90;;;;;;5059373;28;20041;-75
2022/04/17 00:41:50;;;;;;;65.07;45.60;;;6.10;99.90;;;;;;5037081;28;20086;-74
2022/04/17 00:44:16;;;;;;;66.45;45.17;;;6.10;99.90;;;;;;5059065;28;20036;-75
2022/04/17 00:46:42;;;;;;;67.55;47.08;;;6.00;99.90;;;;;;5044751;28;20418;-75
2022/04/17 00:49:07;;;;;;;68.95;48.15;;;6.70;99.90;;;;;;5036755;28;20045;-76
2022/04/17 00:51:35;;;;;;;79.22;50.45;;;6.00;99.90;;;;;;5043910;28;20048;-75
2022/04/17 00:54:03;;;;;;;78.22;50.47;;;6.00;99.90;;;;;;5064115;28;20051;-75
2022/04/17 00:56:30;;;;;;;81.25;52.22;;;6.00;99.90;;;;;;5067313;28;20059;-75
2022/04/17 00:58:56;;;;;;;74.05;49.08;;;6.00;99.90;;;;;;5064146;28;20114;-75
2022/04/17 01:01:22;;;;;;;69.35;46.80;;;6.00;99.90;;;;;;5063841;28;20040;-74
2022/04/17 01:03:49;;;;;;;70.45;47.10;;;6.00;99.90;;;;;;5059620;28;20566;-75
2022/04/17 01:06:15;;;;;;;69.47;44.20;;;5.90;99.90;;;;;;5035054;28;20433;-74
2022/04/17 01:08:42;;;;;;;68.95;45.28;;;5.90;99.90;;;;;;5032671;28;20036;-75
2022/04/17 01:11:09;;;;;;;61.72;39.97;;;5.90;99.90;;;;;;5030583;28;20515;-75
2022/04/17 01:13:38;;;;;;;67.97;44.60;;;5.80;99.90;;;;;;5049757;28;21831;-74
2022/04/17 01:16:05;;;;;;;68.95;46.22;;;5.80;99.90;;;;;;5039814;28;20075;-75
2022/04/17 01:18:58;;;;;;;56.08;38.40;;;5.70;99.90;;;;;;5081047;28;20475;-75
2022/04/17 01:21:24;;;;;;;56.78;40.30;;;5.70;99.90;;;;;;5051799;28;20049;-74
2022/04/17 01:29:20;;;;;;;60.30;41.17;;;5.60;99.90;;;;;;5045135;28;20037;-75
2022/04/17 01:31:49;;;;;;;60.03;40.13;;;5.60;99.90;;;;;;5077279;28;20155;-75
2022/04/17 01:34:16;;;;;;;56.22;38.35;;;5.50;99.90;;;;;;5032516;28;20036;-75
2022/04/17 01:36:43;;;;;;;61.65;40.40;;;5.50;99.90;;;;;;5035279;28;20056;-75
2022/04/17 01:39:09;;;;;;;56.80;40.15;;;5.50;99.90;;;;;;5078740;28;20051;-74
2022/04/17 01:41:37;;;;;;;61.65;41.00;;;5.50;99.90;;;;;;5040637;28;20033;-74
2022/04/17 01:44:04;;;;;;;61.55;38.60;;;5.50;99.90;;;;;;5035095;28;20067;-75
2022/04/17 01:46:29;;;;;;;59.33;39.47;;;5.40;99.90;;;;;;5049551;28;20460;-75
2022/04/17 01:48:55;;;;;;;61.40;38.97;;;5.40;99.90;;;;;;5052098;28;20075;-74
2022/04/17 01:51:21;;;;;;;57.97;38.38;;;5.40;99.90;;;;;;5057405;28;20130;-75
2022/04/17 01:53:47;;;;;;;57.42;37.20;;;5.30;99.90;;;;;;5064199;28;20102;-75
2022/04/17 01:56:13;;;;;;;59.63;39.08;;;5.30;99.90;;;;;;5057156;28;20396;-75
2022/04/17 01:58:39;;;;;;;60.53;38.90;;;5.30;99.90;;;;;;5064931;28;20057;-75
2022/04/17 02:01:05;;;;;;;64.55;39.97;;;5.30;99.90;;;;;;5032420;28;20060;-75
2022/04/17 02:03:31;;;;;;;59.50;40.63;;;5.30;99.90;;;;;;5054478;28;20526;-74
2022/04/17 02:05:57;;;;;;;53.47;38.80;;;5.30;99.90;;;;;;5053544;28;20084;-74
2022/04/17 02:08:22;;;;;;;60.35;39.08;;;5.30;99.90;;;;;;5043785;28;20141;-74
2022/04/17 02:10:48;;;;;;;54.25;39.10;;;5.20;99.90;;;;;;5038212;28;20139;-74
2022/04/17 02:13:14;;;;;;;52.88;35.13;;;5.20;99.90;;;;;;5055422;28;20049;-74
2022/04/17 02:15:40;;;;;;;51.72;34.67;;;5.20;99.90;;;;;;5041987;28;20431;-74
2022/04/17 02:18:06;;;;;;;52.75;35.05;;;5.20;99.90;;;;;;5048846;28;20086;-74
2022/04/17 02:20:31;;;;;;;50.60;35.10;;;5.20;99.90;;;;;;5061922;28;20158;-75
2022/04/17 02:22:57;;;;;;;55.22;35.10;;;5.10;99.90;;;;;;5058105;28;20032;-74
2022/04/17 02:25:22;;;;;;;56.47;35.75;;;5.10;99.90;;;;;;5050467;28;20052;-75
2022/04/17 02:27:48;;;;;;;53.55;36.28;;;5.10;99.90;;;;;;5031283;28;20179;-75
2022/04/17 02:30:14;;;;;;;52.53;36.50;;;5.10;99.90;;;;;;5043025;28;20049;-74
2022/04/17 02:32:40;;;;;;;47.45;33.70;;;5.00;99.90;;;;;;5053713;28;20039;-74
2022/04/17 02:35:06;;;;;;;50.72;33.30;;;5.00;99.90;;;;;;5051790;28;20057;-75
2022/04/17 02:37:35;;;;;;;53.67;32.97;;;5.00;99.90;;;;;;5071008;28;20037;-74
2022/04/17 02:40:01;;;;;;;47.25;31.60;;;5.00;99.90;;;;;;5060914;28;20349;-75
2022/04/17 02:42:27;;;;;;;50.10;32.92;;;5.00;99.90;;;;;;5039067;28;20142;-74
2022/04/17 02:44:52;;;;;;;49.03;32.67;;;5.00;99.90;;;;;;5072805;28;20040;-74
2022/04/17 02:50:02;;;;;;;49.88;31.15;;;5.00;99.90;;;;;;5050400;28;20041;-74
2022/04/17 02:52:29;;;;;;;48.13;30.08;;;4.90;99.90;;;;;;5069779;28;20041;-74
2022/04/17 02:54:55;;;;;;;49.00;30.35;;;4.90;99.90;;;;;;5047829;28;20045;-74
2022/04/17 02:57:21;;;;;;;50.10;32.83;;;4.90;99.90;;;;;;5049778;28;20072;-74
2022/04/17 02:59:46;;;;;;;44.88;31.83;;;4.80;99.90;;;;;;5058783;28;20126;-75
2022/04/17 03:07:40;;;;;;;47.15;30.08;;;4.80;99.90;;;;;;5053963;28;20044;-75
2022/04/17 03:10:06;;;;;;;47.35;31.73;;;4.80;99.90;;;;;;5040312;28;20078;-74
2022/04/17 03:12:32;;;;;;;48.25;31.15;;;4.70;99.90;;;;;;5045596;28;20040;-75
2022/04/17 03:14:57;;;;;;;48.08;32.17;;;4.70;99.90;;;;;;5034183;28;20391;-75
2022/04/17 03:17:24;;;;;;;45.42;30.02;;;4.70;99.90;;;;;;5067845;28;20144;-74
2022/04/17 03:19:52;;;;;;;51.13;30.33;;;4.70;99.90;;;;;;5070812;28;20622;-75
2022/04/17 03:22:21;;;;;;;46.70;31.15;;;4.70;99.90;;;;;;5039640;28;20052;-74
2022/04/17 03:24:47;;;;;;;48.63;32.40;;;4.70;99.90;;;;;;5034995;28;20107;-74
2022/04/17 03:27:13;;;;;;;45.92;30.77;;;4.70;99.90;;;;;;5048820;28;20053;-74
2022/04/17 03:29:38;;;;;;;48.08;30.38;;;4.70;99.90;;;;;;5035369;28;20627;-74
2022/04/17 03:32:04;;;;;;;49.83;32.80;;;4.70;99.90;;;;;;5065224;28;20123;-75
2022/04/17 03:34:30;;;;;;;43.72;31.25;;;4.60;99.90;;;;;;5069768;28;20423;-75
2022/04/17 03:36:58;;;;;;;44.42;29.67;;;4.60;99.90;;;;;;5069646;28;20054;-75
2022/04/17 03:39:24;;;;;;;45.58;31.10;;;4.60;99.90;;;;;;5065322;28;20037;-74
2022/04/17 03:41:53;;;;;;;47.90;32.60;;;4.60;99.90;;;;;;5048589;28;20041;-74
2022/04/17 03:44:19;;;;;;;49.00;30.98;;;4.60;99.90;;;;;;5048259;28;20090;-75
2022/04/17 03:46:45;;;;;;;45.92;32.22;;;4.60;99.90;;;;;;5070331;28;20420;-75
2022/04/17 03:49:11;;;;;;;46.22;29.20;;;4.60;99.90;;;;;;5056739;28;20711;-75
2022/04/17 03:51:37;;;;;;;45.92;30.00;;;4.60;99.90;;;;;;5039226;28;20045;-75
2022/04/17 03:54:03;;;;;;;44.65;29.50;;;4.60;99.90;;;;;;5043550;28;20210;-75
2022/04/17 03:56:28;;;;;;;45.78;28.85;;;4.60;99.90;;;;;;5049656;28;20044;-75
2022/04/17 03:58:54;;;;;;;45.22;30.90;;;4.60;99.90;;;;;;5026424;28;20153;-75
2022/04/17 04:01:20;;;;;;;46.33;30.95;;;4.60;99.90;;;;;;5044000;28;20485;-75
2022/04/17 04:03:46;;;;;;;44.65;30.30;;;4.60;99.90;;;;;;5015026;28;20049;-75
2022/04/17 04:06:11;;;;;;;42.97;28.08;;;4.60;99.90;;;;;;5027036;28;20136;-75
2022/04/17 04:08:37;;;;;;;52.20;29.40;;;4.60;99.90;;;;;;5012811;28;20191;-75
2022/04/17 04:11:03;;;;;;;43.22;28.27;;;4.60;99.90;;;;;;5030590;28;20154;-75
2022/04/17 04:13:28;;;;;;;45.30;28.50;;;4.60;99.90;;;;;;5023907;28;20056;-75
2022/04/17 04:15:57;;;;;;;43.13;27.92;;;4.60;99.90;;;;;;5037426;28;20049;-74
2022/04/17 04:18:22;;;;;;;42.00;26.67;;;4.60;99.90;;;;;;5030205;28;20049;-75
2022/04/17 04:20:48;;;;;;;43.80;26.40;;;4.50;99.90;;;;;;5044659;28;20072;-75
2022/04/17 04:23:13;;;;;;;42.97;27.15;;;4.50;99.90;;;;;;5020589;28;20048;-75
2022/04/17 04:25:39;;;;;;;43.88;27.67;;;4.50;99.90;;;;;;5030813;28;20378;-74
2022/04/17 04:30:49;;;;;;;39.30;27.20;;;4.50;99.90;;;;;;5034594;28;20534;-75
2022/04/17 04:33:18;;;;;;;41.55;26.80;;;4.50;99.90;;;;;;5025576;28;20045;-75
2022/04/17 04:35:43;;;;;;;37.50;24.52;;;4.50;99.90;;;;;;5011770;28;20045;-75
2022/04/17 04:38:09;;;;;;;36.58;24.67;;;4.50;99.90;;;;;;5017608;28;20129;-75
2022/04/17 04:40:34;;;;;;;42.38;23.85;;;4.50;99.90;;;;;;5027833;28;20037;-75
2022/04/17 04:43:01;;;;;;;38.92;26.20;;;4.50;99.90;;;;;;5040418;28;20041;-75
2022/04/17 04:48:13;;;;;;;39.80;25.13;;;4.50;99.90;;;;;;5038776;28;20489;-75
2022/04/17 04:50:39;;;;;;;39.33;25.15;;;4.50;99.90;;;;;;5035815;28;20045;-75
2022/04/17 04:53:05;;;;;;;38.45;24.65;;;4.50;99.90;;;;;;5024330;28;20052;-75
2022/04/17 04:55:31;;;;;;;38.20;24.15;;;4.60;99.90;;;;;;5025575;28;20122;-75
2022/04/17 04:57:56;;;;;;;42.22;24.60;;;4.50;99.90;;;;;;5019807;28;20077;-75
2022/04/17 05:00:22;;;;;;;38.40;23.38;;;4.60;99.90;;;;;;5028581;28;20115;-76
2022/04/17 05:02:51;;;;;;;38.95;24.48;;;4.60;99.90;;;;;;5047313;28;20404;-75
2022/04/17 05:05:16;;;;;;;36.38;22.60;;;5.10;99.90;;;;;;5030838;28;20049;-75
2022/04/17 05:07:42;;;;;;;35.75;22.33;;;4.60;99.90;;;;;;5037824;28;20554;-75
2022/04/17 05:10:08;;;;;;;33.85;21.63;;;4.70;99.90;;;;;;5029113;28;20153;-75
2022/04/17 05:12:34;;;;;;;33.38;22.38;;;4.70;99.90;;;;;;5026514;28;20033;-75
2022/04/17 05:15:00;;;;;;;35.22;21.38;;;4.70;99.90;;;;;;5039539;28;20055;-75
2022/04/17 05:17:26;;;;;;;33.78;21.15;;;4.80;99.90;;;;;;5036433;28;20125;-75
2022/04/17 05:19:52;;;;;;;32.42;20.40;;;4.80;99.90;;;;;;5043135;28;20131;-75
2022/04/17 05:22:19;;;;;;;35.58;20.63;;;4.80;99.90;;;;;;5036743;28;20492;-75
2022/04/17 05:24:46;;;;;;;32.40;19.63;;;4.90;99.90;;;;;;5032511;28;20111;-75
2022/04/17 05:27:12;;;;;;;33.70;20.90;;;4.90;99.90;;;;;;5030236;28;20103;-76
2022/04/17 05:29:39;;;;;;;32.03;19.17;;;5.00;99.90;;;;;;5044969;28;20076;-75
2022/04/17 05:32:05;;;;;;;32.50;18.73;;;5.00;99.90;;;;;;5055003;28;20132;-75
2022/04/17 05:34:31;;;;;;;28.10;19.25;;;5.10;99.90;;;;;;5047246;28;20033;-75
2022/04/17 05:36:56;;;;;;;25.98;17.60;;;5.10;99.90;;;;;;5046546;28;20499;-75
2022/04/17 05:39:25;;;;;;;27.98;17.73;;;5.10;99.90;;;;;;5040705;28;20041;-75
2022/04/17 05:41:51;;;;;;;27.95;17.60;;;5.20;99.90;;;;;;5036538;28;20534;-75
2022/04/17 05:44:16;;;;;;;26.73;17.23;;;5.30;99.90;;;;;;5036925;28;20052;-75
2022/04/17 05:46:42;;;;;;;27.25;17.50;;;5.40;99.90;;;;;;5053540;28;20042;-75
2022/04/17 05:49:08;;;;;;;27.25;17.10;;;5.40;99.90;;;;;;5034283;28;20538;-76
2022/04/17 05:51:36;;;;;;;28.70;16.67;;;5.50;99.90;;;;;;5031292;28;20099;-77
2022/04/17 05:54:07;;;;;;;30.92;17.48;;;5.60;99.90;;;;;;5027238;28;20037;-76
2022/04/17 05:56:33;;;;;;;25.50;16.42;;;5.70;99.90;;;;;;5030034;28;20068;-77
2022/04/17 05:59:00;;;;;;;24.30;17.17;;;5.70;99.90;;;;;;5049294;28;20495;-77
2022/04/17 06:01:26;;;;;;;29.83;16.65;;;5.90;99.90;;;;;;5066344;28;20082;-77
2022/04/17 06:03:51;;;;;;;23.98;15.60;;;5.90;99.90;;;;;;5081863;28;20451;-77
2022/04/17 06:06:18;;;;;;;23.27;15.60;;;6.00;99.90;;;;;;5071897;28;20037;-77
2022/04/17 06:08:47;;;;;;;26.58;16.70;;;6.10;99.90;;;;;;5038171;28;20043;-78
2022/04/17 06:11:17;;;;;;;23.75;15.30;;;6.10;99.90;;;;;;5053152;28;20041;-76
2022/04/17 06:13:42;;;;;;;25.75;16.23;;;6.20;99.90;;;;;;5044512;28;20652;-77
2022/04/17 06:16:08;;;;;;;26.40;15.38;;;6.30;99.90;;;;;;5061331;28;20078;-76
2022/04/17 06:18:33;;;;;;;25.48;15.05;;;6.30;99.90;;;;;;5045950;28;20083;-75
2022/04/17 06:20:59;;;;;;;22.80;15.40;;;6.40;99.90;;;;;;5056013;28;20051;-75
2022/04/17 06:23:25;;;;;;;24.98;15.10;;;6.50;99.90;;;;;;5073801;28;20044;-76
2022/04/17 06:25:51;;;;;;;22.42;15.23;;;6.60;99.90;;;;;;5041931;28;20051;-77
2022/04/17 06:28:19;;;;;;;26.60;16.10;;;6.60;99.90;;;;;;5066021;28;20119;-77
2022/04/17 06:30:44;;;;;;;23.02;14.10;;;6.70;99.90;;;;;;5061296;28;20718;-78
2022/04/17 06:33:10;;;;;;;21.23;14.13;;;6.80;99.90;;;;;;5047915;28;20051;-78
2022/04/17 06:35:36;;;;;;;23.95;15.15;;;6.90;99.90;;;;;;5048785;28;20101;-77
2022/04/17 06:38:02;;;;;;;21.35;14.45;;;7.00;99.90;;;;;;5056820;28;20036;-73
2022/04/17 06:40:33;;;;;;;21.63;13.98;;;7.10;99.90;;;;;;5054947;28;20152;-74
2022/04/17 06:43:07;;;;;;;22.08;14.65;;;7.20;99.90;;;;;;5041637;28;20072;-74
2022/04/17 06:45:34;;;;;;;22.17;14.60;;;7.30;99.90;;;;;;5070216;28;20123;-77
2022/04/17 06:48:12;;;;;;;20.02;13.38;;;7.30;99.90;;;;;;5072275;28;20067;-76
2022/04/17 06:50:37;;;;;;;22.45;13.40;;;7.40;99.90;;;;;;5049061;28;20041;-76
2022/04/17 06:53:03;;;;;;;20.65;13.13;;;7.40;99.90;;;;;;5052107;28;20052;-77
2022/04/17 06:55:29;;;;;;;21.95;13.98;;;7.50;99.90;;;;;;5047227;28;20051;-82
2022/04/17 06:57:54;;;;;;;23.02;13.20;;;7.60;99.90;;;;;;5048758;28;20033;-83
2022/04/17 07:00:22;;;;;;;22.30;13.13;;;7.70;99.90;;;;;;5056307;28;20052;-82
2022/04/17 07:02:48;;;;;;;23.02;13.05;;;7.90;99.90;;;;;;5048417;28;20049;-83
2022/04/17 07:05:14;;;;;;;24.15;13.18;;;7.90;99.90;;;;;;5070011;28;20041;-84
2022/04/17 07:07:41;;;;;;;22.98;13.63;;;8.00;99.90;;;;;;5050334;28;20067;-81
2022/04/17 07:10:08;;;;;;;20.08;12.02;;;8.10;99.90;;;;;;5056534;28;20041;-82
2022/04/17 07:12:34;;;;;;;21.77;12.88;;;8.20;99.90;;;;;;5050837;28;20064;-83
2022/04/17 07:15:01;;;;;;;19.30;11.90;;;8.20;99.90;;;;;;5041796;28;20096;-80
2022/04/17 07:17:36;;;;;;;20.15;11.25;;;8.30;99.90;;;;;;5069209;28;20043;-80
2022/04/17 07:20:09;;;;;;;15.18;9.77;;;8.40;99.90;;;;;;5052630;28;20128;-80
2022/04/17 07:22:36;;;;;;;15.95;9.82;;;8.50;99.90;;;;;;5040655;28;20101;-80
2022/04/17 07:25:04;;;;;;;18.50;10.32;;;8.60;99.90;;;;;;5049007;28;20412;-78
2022/04/17 07:27:39;;;;;;;14.90;10.00;;;8.70;99.90;;;;;;5048760;28;20439;-79
2022/04/17 07:30:30;;;;;;;19.15;11.18;;;9.40;99.70;;;;;;5056460;28;20091;-79
2022/04/17 07:33:01;;;;;;;16.73;9.80;;;8.90;99.30;;;;;;5033285;28;20449;-81
2022/04/17 07:35:28;;;;;;;16.40;10.57;;;9.00;99.00;;;;;;5041523;28;20048;-80
2022/04/17 07:37:56;;;;;;;14.45;9.13;;;9.10;98.80;;;;;;5070577;28;20095;-79
2022/04/17 07:40:30;;;;;;;14.68;8.40;;;9.20;98.40;;;;;;5063121;28;20046;-80
2022/04/17 07:43:00;;;;;;;14.30;8.65;;;9.20;97.80;;;;;;5045083;28;20036;-78
2022/04/17 07:45:27;;;;;;;16.05;8.68;;;9.30;97.80;;;;;;5063285;28;20123;-79
2022/04/17 07:47:53;;;;;;;11.65;7.80;;;9.40;97.60;;;;;;5070974;28;20051;-79
2022/04/17 07:50:23;;;;;;;13.07;8.02;;;9.50;96.90;;;;;;5062258;28;20461;-81
2022/04/17 07:52:49;;;;;;;12.88;8.20;;;9.60;96.70;;;;;;5055530;28;20053;-81
2022/04/17 07:55:15;;;;;;;13.93;8.25;;;9.60;96.70;;;;;;5067594;28;20037;-80
2022/04/17 08:00:32;;;;;;;12.05;7.38;;;9.80;95.60;;;;;;5058234;28;20071;-79
2022/04/17 08:05:44;;;;;;;13.52;7.43;;;10.00;94.80;;;;;;5030738;28;20380;-78
2022/04/17 08:08:10;;;;;;;10.38;6.90;;;10.10;94.50;;;;;;5035124;28;20122;-80
2022/04/17 08:10:37;;;;;;;11.07;7.40;;;10.20;94.10;;;;;;5049097;28;20077;-77
2022/04/17 08:13:03;;;;;;;15.32;8.45;;;10.20;94.00;;;;;;5065179;28;20123;-77
2022/04/17 08:15:29;;;;;;;11.00;7.45;;;10.30;93.90;;;;;;5062481;28;20442;-78
2022/04/17 08:17:55;;;;;;;11.57;7.35;;;10.40;93.70;;;;;;5056272;28;20048;-77
2022/04/17 08:20:21;;;;;;;10.95;7.30;;;10.50;93.20;;;;;;5057964;28;20041;-79
2022/04/17 08:22:46;;;;;;;10.77;7.68;;;10.60;93.30;;;;;;5058554;28;20124;-78
2022/04/17 08:25:12;;;;;;;12.00;7.95;;;10.60;92.40;;;;;;5046214;28;20151;-79
2022/04/17 08:27:46;;;;;;;10.60;7.20;;;10.70;92.20;;;;;;5042525;28;20044;-77
2022/04/17 08:30:12;;;;;;;13.90;8.00;;;10.80;92.00;;;;;;5031976;28;20433;-78
2022/04/17 08:32:38;;;;;;;11.52;6.95;;;10.80;92.00;;;;;;5030160;28;20144;-79
2022/04/17 08:35:06;;;;;;;12.50;7.93;;;10.90;92.00;;;;;;5036969;28;20135;-77
2022/04/17 08:37:31;;;;;;;13.30;7.70;;;10.90;91.90;;;;;;5066564;28;20037;-79
2022/04/17 08:39:57;;;;;;;11.57;8.20;;;11.00;91.90;;;;;;5040075;28;20045;-81
2022/04/17 08:42:25;;;;;;;11.50;7.22;;;11.00;91.30;;;;;;5058992;28;20475;-81
2022/04/17 08:44:53;;;;;;;10.98;7.22;;;11.10;90.70;;;;;;5039796;28;20032;-81
2022/04/17 08:47:19;;;;;;;11.23;6.95;;;11.10;90.10;;;;;;5034623;28;20056;-80
2022/04/17 08:49:46;;;;;;;10.65;7.05;;;11.10;89.50;;;;;;5052400;28;20049;-80
2022/04/17 08:52:16;;;;;;;10.32;6.32;;;11.20;88.60;;;;;;5038724;28;20107;-85
2022/04/17 08:54:44;;;;;;;8.95;6.05;;;11.20;86.80;;;;;;5048891;28;20045;-76
2022/04/17 08:57:13;;;;;;;9.77;5.95;;;11.30;84.80;;;;;;5048962;28;20369;-81
2022/04/17 08:59:38;;;;;;;12.52;6.18;;;11.30;84.80;;;;;;5056107;28;20032;-81
2022/04/17 09:02:11;;;;;;;11.07;5.95;;;11.40;84.50;;;;;;5042780;28;20056;-78
2022/04/17 09:04:46;;;;;;;12.70;6.10;;;11.50;83.70;;;;;;5040736;28;20068;-79
2022/04/17 09:07:15;;;;;;;8.73;5.95;;;11.50;82.70;;;;;;5018519;28;20367;-79
2022/04/17 09:09:52;;;;;;;10.43;6.30;;;11.60;80.90;;;;;;5030441;28;20071;-80
2022/04/17 09:12:23;;;;;;;10.88;5.57;;;11.70;80.10;;;;;;5029501;28;20049;-79
2022/04/17 09:14:49;;;;;;;11.93;5.70;;;11.70;78.90;;;;;;5048024;28;20562;-80
2022/04/17 09:17:16;;;;;;;9.48;5.53;;;11.80;76.50;;;;;;5033003;28;20038;-80
2022/04/17 09:19:43;;;;;;;8.93;5.68;;;11.90;76.10;;;;;;5010979;28;20053;-80
2022/04/17 09:22:12;;;;;;;7.78;4.40;;;12.00;75.60;;;;;;5027270;28;20037;-79
2022/04/17 09:24:39;;;;;;;5.88;4.15;;;12.00;74.20;;;;;;5048661;28;20049;-79
2022/04/17 09:27:07;;;;;;;8.00;4.72;;;12.20;73.80;;;;;;5047626;28;20243;-80
2022/04/17 09:29:36;;;;;;;10.35;4.68;;;12.20;73.50;;;;;;5031090;28;20103;-80
2022/04/17 09:32:06;;;;;;;9.63;4.57;;;12.30;72.70;;;;;;5010765;28;20052;-80
2022/04/17 09:34:58;;;;;;;7.00;4.68;;;12.30;71.50;;;;;;5010818;28;20041;-79
2022/04/17 09:37:27;;;;;;;8.88;4.82;;;12.40;70.50;;;;;;5016681;28;20507;-79
2022/04/17 09:40:06;;;;;;;6.40;4.20;;;12.50;69.60;;;;;;5028853;28;20051;-79
2022/04/17 09:42:31;;;;;;;7.95;4.45;;;12.50;67.90;;;;;;5008636;28;20146;-80
2022/04/17 09:45:01;;;;;;;6.80;4.95;;;12.60;66.90;;;;;;5038826;28;20425;-79
2022/04/17 09:47:33;;;;;;;7.68;4.63;;;12.70;66.20;;;;;;5024525;28;20045;-79
2022/04/17 09:50:00;;;;;;;7.03;4.82;;;12.70;66.40;;;;;;5010118;28;20362;-80
2022/04/17 09:52:40;;;;;;;9.43;4.72;;;12.80;65.80;;;;;;5029179;28;20124;-79
2022/04/17 09:55:07;;;;;;;7.47;3.97;;;12.80;64.40;;;;;;5010684;28;20127;-79
2022/04/17 09:57:35;;;;;;;6.68;3.60;;;12.90;64.10;;;;;;5008163;28;20084;-79
2022/04/17 10:00:17;;;;;;;7.82;4.30;;;13.00;64.60;;;;;;5010865;28;20046;-79
2022/04/17 10:02:46;;;;;;;7.40;4.30;;;13.00;64.30;;;;;;5009953;28;20049;-79
2022/04/17 10:05:20;;;;;;;7.68;4.90;;;13.10;64.30;;;;;;5035728;28;20413;-79
2022/04/17 10:07:47;;;;;;;7.05;4.53;;;13.20;64.20;;;;;;5028071;28;20057;-79
2022/04/17 10:10:17;;;;;;;6.80;4.63;;;13.20;64.60;;;;;;5029696;28;20041;-78
2022/04/17 10:12:46;;;;;;;8.20;4.53;;;13.30;62.90;;;;;;5036697;28;20485;-77
2022/04/17 10:15:12;;;;;;;4.93;3.33;;;13.40;62.50;;;;;;5030086;28;20036;-77
2022/04/17 10:17:40;;;;;;;5.13;3.65;;;13.40;61.40;;;;;;5028956;28;20506;-77
2022/04/17 10:20:11;;;;;;;6.82;3.80;;;13.50;60.90;;;;;;5048119;28;20497;-77
2022/04/17 10:22:38;;;;;;;;;;;13.60;59.70;;;;;;5040275;28;20043;-77
2022/04/17 10:25:08;;;;;;;6.40;4.10;;;13.60;61.40;;;;;;5011186;28;20039;-77
2022/04/17 10:27:55;;;;;;;7.50;4.43;;;13.70;60.30;;;;;;5028841;28;20052;-79
2022/04/17 10:30:45;;;;;;;6.15;3.60;;;13.80;60.90;;;;;;5029629;28;20480;-76
2022/04/17 10:33:20;;;;;;;6.80;4.25;;;13.90;60.10;;;;;;5027607;28;20073;-77
2022/04/17 10:36:04;;;;;;;7.38;4.22;;;14.00;59.80;;;;;;5047573;28;20045;-78
2022/04/17 10:38:50;;;;;;;7.53;4.60;;;14.20;59.20;;;;;;5028932;28;20048;-77
2022/04/17 10:41:16;;;;;;;6.55;4.30;;;14.30;60.40;;;;;;5028530;28;20049;-76
2022/04/17 10:43:47;;;;;;;7.25;4.75;;;14.40;60.30;;;;;;5031063;28;20472;-77
2022/04/17 10:46:17;;;;;;;;;;;14.60;60.20;;;;;;5027544;28;20046;-76
2022/04/17 10:48:47;;;;;;;7.30;4.35;;;14.70;61.70;;;;;;5010185;28;19932;-77
2022/04/17 10:51:26;;;;;;;9.27;5.13;;;14.80;61.10;;;;;;5010347;28;20046;-77
2022/04/17 10:54:09;;;;;;;9.23;4.70;;;15.00;59.50;;;;;;5018127;28;20049;-77
2022/04/17 10:56:40;;;;;;;7.68;4.47;;;15.20;59.50;;;;;;5049980;28;20106;-76
2022/04/17 10:59:17;;;;;;;8.45;4.68;;;15.30;59.10;;;;;;5051880;28;20049;-76
2022/04/17 11:01:50;;;;;;;7.20;3.85;;;15.50;57.80;;;;;;5033947;28;20079;-77
2022/04/17 11:04:17;;;;;;;6.13;3.45;;;15.60;56.90;;;;;;5051265;28;20386;-77
2022/04/17 11:06:43;;;;;;;7.85;4.32;;;15.70;56.50;;;;;;5049115;28;20183;-77
2022/04/17 11:09:15;;;;;;;6.38;4.10;;;15.90;56.30;;;;;;5049757;28;20127;-76
2022/04/17 11:11:43;;;;;;;7.90;4.45;;;16.00;56.60;;;;;;5048801;28;20552;-76
2022/04/17 11:14:13;;;;;;;7.68;3.90;;;16.20;56.60;;;;;;5029320;28;20388;-76
2022/04/17 11:16:52;;;;;;;7.05;3.72;;;16.40;57.40;;;;;;5040715;28;20056;-76
2022/04/17 11:19:20;;;;;;;5.90;3.72;;;16.60;55.60;;;;;;5049611;28;20045;-76
2022/04/17 11:21:47;;;;;;;5.90;3.50;;;16.70;56.00;;;;;;5047599;28;20121;-76
2022/04/17 11:24:16;;;;;;;6.97;3.97;;;16.80;55.40;;;;;;5046479;28;20056;-76
2022/04/17 11:27:05;;;;;;;6.40;3.88;;;17.00;53.90;;;;;;5047277;28;20127;-77
2022/04/17 11:29:36;;;;;;;8.45;3.60;;;17.10;54.70;;;;;;5038111;28;20459;-77
2022/04/17 11:32:26;;;;;;;6.18;3.50;;;17.10;54.20;;;;;;5030608;28;20453;-77
2022/04/17 11:34:52;;;;;;;6.28;3.13;;;17.20;52.50;;;;;;5029483;28;20045;-78
2022/04/17 11:37:37;;;;;;;7.80;3.40;;;17.20;53.00;;;;;;5044699;28;20045;-79
2022/04/17 11:40:14;;;;;;;4.55;3.08;;;17.40;52.80;;;;;;5048698;28;20071;-78
2022/04/17 11:42:42;;;;;;;5.75;3.33;;;17.50;52.50;;;;;;5046542;28;20076;-77
2022/04/17 11:45:09;;;;;;;5.72;3.70;;;17.70;52.20;;;;;;5048815;28;20080;-76
2022/04/17 11:47:40;;;;;;;4.45;3.00;;;17.80;49.90;;;;;;5045812;28;20080;-77
2022/04/17 11:50:18;;;;;;;6.22;3.03;;;17.80;49.90;;;;;;5064080;28;20044;-79
2022/04/17 11:52:48;;;;;;;6.32;3.50;;;17.90;50.00;;;;;;5034985;28;20036;-81
2022/04/17 11:55:14;;;;;;;4.85;3.08;;;18.20;50.80;;;;;;5031197;28;20037;-79
2022/04/17 11:57:39;;;;;;;6.88;3.40;;;18.30;50.00;;;;;;5029529;28;20049;-80
2022/04/17 12:00:06;;;;;;;6.75;3.53;;;18.50;49.70;;;;;;5045380;28;20132;-79
2022/04/17 12:02:31;;;;;;;5.40;3.60;;;18.70;50.00;;;;;;5051627;28;20090;-80
2022/04/17 12:05:12;;;;;;;6.70;3.63;;;18.90;49.60;;;;;;5041995;28;20068;-81
2022/04/17 12:07:42;;;;;;;5.43;3.10;;;19.10;50.30;;;;;;5069835;28;20099;-81
2022/04/17 12:10:10;;;;;;;4.95;2.80;;;19.20;49.40;;;;;;5062388;28;20052;-82
2022/04/17 12:12:41;;;;;;;7.05;3.80;;;19.40;50.20;;;;;;5060616;28;20053;-81
2022/04/17 12:15:08;;;;;;;;;;;19.60;49.70;;;;;;5053157;28;20698;-81
2022/04/17 12:17:34;;;;;;;5.97;3.97;;;19.80;51.10;;;;;;5043852;28;20018;-81
2022/04/17 12:20:04;;;;;;;8.10;3.85;;;19.90;49.90;;;;;;5036301;28;20048;-82
2022/04/17 12:22:31;;;;;;;5.88;4.03;;;20.10;49.50;;;;;;5034025;28;20057;-82
2022/04/17 12:24:58;;;;;;;7.20;4.22;;;20.30;49.50;;;;;;5043550;28;20138;-80
2022/04/17 12:27:24;;;;;;;7.97;4.85;;;20.40;48.80;;;;;;5065506;28;20524;-80
2022/04/17 12:29:51;;;;;;;6.85;4.00;;;20.60;46.40;;;;;;5064053;28;20108;-79
2022/04/17 12:32:29;;;;;;;6.80;4.00;;;20.50;45.80;;;;;;5031644;28;20045;-80
2022/04/17 12:34:59;;;;;;;7.25;3.83;;;20.50;46.10;;;;;;5033351;28;20140;-79
2022/04/17 12:37:30;;;;;;;8.93;4.77;;;20.50;47.50;;;;;;5075197;28;20072;-76
2022/04/17 12:40:09;;;;;;;9.40;4.15;;;20.70;47.00;;;;;;5039303;28;20295;-77
2022/04/17 12:42:38;;;;;;;9.50;3.50;;;20.80;47.00;;;;;;5052172;28;20453;-77
2022/04/17 12:45:05;;;;;;;5.15;3.95;;;20.90;47.60;;;;;;5041891;28;20453;-78
2022/04/17 12:47:31;;;;;;;6.68;4.65;;;21.10;47.90;;;;;;5039087;28;20106;-77
2022/04/17 12:50:07;;;;;;;6.25;4.05;;;21.20;47.40;;;;;;5060895;28;20044;-76
2022/04/17 12:52:34;;;;;;;9.05;3.95;;;21.20;45.80;;;;;;5030257;28;20075;-77
2022/04/17 12:55:13;;;;;;;6.43;4.18;;;21.20;47.00;;;;;;5058258;28;20177;-77
2022/04/17 12:57:39;;;;;;;7.55;4.15;;;21.40;47.70;;;;;;5078564;28;20048;-78
2022/04/17 13:00:17;;;;;;;6.05;4.07;;;21.50;47.40;;;;;;5066587;28;20125;-78
2022/04/17 13:02:43;;;;;;;8.30;4.50;;;21.60;46.20;;;;;;5038044;28;20471;-77
2022/04/17 13:05:21;;;;;;;4.47;3.60;;;21.60;46.80;;;;;;5058665;28;20460;-77
2022/04/17 13:07:47;;;;;;;5.88;3.75;;;21.70;47.10;;;;;;5056733;28;20052;-78
2022/04/17 13:10:12;;;;;;;5.25;3.42;;;21.80;45.70;;;;;;5058479;28;20455;-78